Minco, Oklahoma
Current Conditions -  °F | °C
As of 1:15 PM on Sunday 21 Dec 2014 (Local Time) from KRQO Reporting Station
Overcast Overcast  
Wind Chill: 37°   Ceiling: 600
Heat Index: 45°   Visibility: NA
Dew Point: 43°   Wind: 18mph
Humidity: 93%   Direction: 160°SSE
Pressure: 29.82"   Gusts: 25mph
Location:  35.31°N, 97.94°W
Report Text: KRQO 211915Z AUTO 16016G22KT OVC006 07/06 A2982 RMK AO2 PWINO
Loading
Personal Weather Stations






























Interactive Weather Map New forecast layout! Learn more

10-Day Weather Forecast

Advertisements
Track Severe Weather on mobile